createdAt,value
2023-09-08T00:01:11.166Z,7.30
2023-09-08T00:03:38.648Z,8.77
2023-09-08T00:06:06.200Z,8.35
2023-09-08T00:08:33.791Z,11.17
2023-09-08T00:11:01.393Z,6.45
2023-09-08T00:13:28.745Z,9.15
2023-09-08T00:15:56.113Z,6.53
2023-09-08T00:18:24.022Z,6.88
2023-09-08T00:20:51.365Z,9.13
2023-09-08T00:23:18.667Z,6.95
2023-09-08T00:25:46.004Z,7.53
2023-09-08T00:28:13.285Z,8.07
2023-09-08T00:30:40.587Z,8.25
2023-09-08T00:33:10.106Z,8.73
2023-09-08T00:35:37.631Z,8.20
2023-09-08T00:38:05.127Z,8.77
2023-09-08T00:40:33.741Z,6.97
2023-09-08T00:43:01.066Z,9.05
2023-09-08T00:45:30.148Z,6.73
2023-09-08T00:47:57.901Z,8.35
2023-09-08T00:50:25.333Z,8.60
2023-09-08T00:52:52.641Z,7.50
2023-09-08T00:55:20.050Z,12.13
2023-09-08T00:57:47.393Z,9.33
2023-09-08T01:00:15.372Z,8.05
2023-09-08T01:02:42.824Z,8.52
2023-09-08T01:05:11.173Z,11.35
2023-09-08T01:07:38.873Z,10.95
2023-09-08T01:10:07.392Z,8.97
2023-09-08T01:12:36.079Z,8.98
2023-09-08T01:15:04.128Z,9.65
2023-09-08T01:17:31.468Z,8.52
2023-09-08T01:20:01.955Z,8.93
2023-09-08T01:22:29.277Z,8.53
2023-09-08T01:25:09.097Z,10.73
2023-09-08T01:27:37.272Z,9.77
2023-09-08T01:30:06.079Z,10.35
2023-09-08T01:32:34.383Z,10.73
2023-09-08T01:35:01.890Z,10.60
2023-09-08T01:37:29.310Z,10.55
2023-09-08T01:39:56.655Z,9.30
2023-09-08T01:42:24.082Z,9.40
2023-09-08T01:44:51.412Z,10.25
2023-09-08T01:47:18.905Z,9.77
2023-09-08T01:49:46.254Z,13.38
2023-09-08T01:52:13.703Z,10.25
2023-09-08T01:54:41.175Z,8.95
2023-09-08T01:57:08.854Z,9.30
2023-09-08T01:59:38.082Z,11.37
2023-09-08T02:02:05.759Z,11.82
2023-09-08T02:04:33.270Z,12.13
2023-09-08T02:07:00.960Z,12.52
2023-09-08T02:09:34.575Z,12.15
2023-09-08T02:12:02.274Z,11.43
2023-09-08T02:14:30.100Z,8.85
2023-09-08T02:16:57.927Z,10.13
2023-09-08T02:19:25.467Z,8.48
2023-09-08T02:21:52.850Z,12.52
2023-09-08T02:24:20.384Z,10.33
2023-09-08T02:26:47.844Z,10.00
2023-09-08T02:29:15.652Z,12.27
2023-09-08T02:31:43.222Z,10.85
2023-09-08T02:34:11.634Z,12.05
2023-09-08T02:36:39.090Z,9.03
2023-09-08T02:39:06.998Z,9.18
2023-09-08T02:41:35.403Z,10.05
2023-09-08T02:44:04.330Z,11.00
2023-09-08T02:46:31.710Z,11.13
2023-09-08T02:49:00.023Z,9.43
2023-09-08T02:51:27.487Z,14.73
2023-09-08T02:53:55.984Z,12.15
2023-09-08T02:56:23.296Z,9.55
2023-09-08T02:58:50.609Z,12.35
2023-09-08T03:01:21.520Z,10.60
2023-09-08T03:03:49.602Z,12.15
2023-09-08T03:06:21.296Z,12.82
2023-09-08T03:08:49.372Z,11.02
2023-09-08T03:11:16.669Z,12.38
2023-09-08T03:13:44.052Z,11.30
2023-09-08T03:16:12.117Z,13.65
2023-09-08T03:18:39.739Z,11.95
2023-09-08T03:21:10.868Z,12.70
2023-09-08T03:23:43.303Z,11.40
2023-09-08T03:26:11.382Z,10.57
2023-09-08T03:28:40.012Z,11.32
2023-09-08T03:31:07.611Z,11.25
2023-09-08T03:33:36.533Z,13.20
2023-09-08T03:36:05.705Z,12.30
2023-09-08T03:38:33.712Z,9.87
2023-09-08T03:41:01.347Z,14.27
2023-09-08T03:43:28.720Z,14.82
2023-09-08T03:45:56.293Z,10.85
2023-09-08T03:48:23.800Z,14.73
2023-09-08T03:50:51.179Z,14.10
2023-09-08T03:53:18.637Z,11.82
2023-09-08T03:55:46.650Z,14.70
2023-09-08T03:58:16.934Z,15.18
2023-09-08T04:00:44.353Z,11.40
2023-09-08T04:03:11.915Z,10.53
2023-09-08T04:05:39.392Z,13.00
2023-09-08T04:08:07.116Z,13.18
2023-09-08T04:10:34.698Z,12.25
2023-09-08T04:13:02.084Z,12.45
2023-09-08T04:15:29.514Z,14.53
2023-09-08T04:17:58.429Z,12.52
2023-09-08T04:20:26.972Z,13.98
2023-09-08T04:22:54.905Z,13.40
2023-09-08T04:25:23.281Z,14.48
2023-09-08T04:27:50.759Z,11.60
2023-09-08T04:30:19.224Z,12.55
2023-09-08T04:32:46.721Z,15.15
2023-09-08T04:35:14.596Z,14.27
2023-09-08T04:37:41.932Z,12.40
2023-09-08T04:40:09.484Z,13.70
2023-09-08T04:42:37.497Z,11.95
2023-09-08T04:45:06.145Z,15.60
2023-09-08T04:47:34.278Z,11.38
2023-09-08T04:50:01.797Z,13.50
2023-09-08T04:52:29.351Z,13.47
2023-09-08T04:54:56.778Z,10.13
2023-09-08T04:57:24.420Z,12.43
2023-09-08T04:59:56.308Z,13.77
2023-09-08T05:02:24.130Z,12.43
2023-09-08T05:04:51.800Z,14.83
2023-09-08T05:07:20.156Z,15.18
2023-09-08T05:09:48.454Z,17.55
2023-09-08T05:12:16.354Z,15.23
2023-09-08T05:14:43.762Z,15.95
2023-09-08T05:17:11.200Z,11.50
2023-09-08T05:19:39.073Z,15.70
2023-09-08T05:22:08.305Z,12.52
2023-09-08T05:24:35.766Z,15.13
2023-09-08T05:27:03.725Z,14.55
2023-09-08T05:29:31.540Z,11.43
2023-09-08T05:31:58.996Z,13.10
2023-09-08T05:34:26.328Z,13.43
2023-09-08T05:36:53.755Z,13.70
2023-09-08T05:39:21.157Z,15.30
2023-09-08T05:41:48.596Z,14.47
2023-09-08T05:44:16.355Z,19.95
2023-09-08T05:46:43.789Z,16.02
2023-09-08T05:49:11.362Z,21.42
2023-09-08T05:51:38.835Z,20.35
2023-09-08T05:54:07.056Z,16.17
2023-09-08T05:56:35.423Z,15.15
2023-09-08T05:59:02.868Z,14.38
2023-09-08T06:01:31.191Z,17.20
2023-09-08T06:03:59.337Z,14.38
2023-09-08T06:06:29.759Z,13.37
2023-09-08T06:08:57.351Z,16.98
2023-09-08T06:11:25.274Z,15.90
2023-09-08T06:13:54.048Z,14.75
2023-09-08T06:16:21.533Z,14.60
2023-09-08T06:18:49.016Z,15.30
2023-09-08T06:21:19.754Z,20.65
2023-09-08T06:23:47.555Z,18.77
2023-09-08T06:26:15.315Z,15.55
2023-09-08T06:28:44.559Z,17.67
2023-09-08T06:31:12.083Z,21.47
2023-09-08T06:33:41.435Z,19.35
2023-09-08T06:36:08.947Z,16.20
2023-09-08T06:38:36.576Z,15.00
2023-09-08T06:41:11.132Z,17.42
2023-09-08T06:43:38.652Z,19.67
2023-09-08T06:46:11.378Z,18.92
2023-09-08T06:48:39.178Z,18.35
2023-09-08T06:51:06.962Z,16.77
2023-09-08T06:53:34.721Z,16.77
2023-09-08T06:56:02.419Z,18.73
2023-09-08T06:58:30.989Z,18.38
2023-09-08T07:00:58.731Z,16.65
2023-09-08T07:03:28.363Z,15.80
2023-09-08T07:05:56.897Z,15.10
2023-09-08T07:08:25.116Z,19.40
2023-09-08T07:10:55.870Z,15.77
2023-09-08T07:13:23.666Z,16.83
2023-09-08T07:15:51.556Z,17.20
2023-09-08T07:18:19.100Z,16.15
2023-09-08T07:20:50.086Z,23.77
2023-09-08T07:23:19.597Z,22.90
2023-09-08T07:25:50.876Z,21.60
2023-09-08T07:28:23.957Z,17.17
2023-09-08T07:30:52.327Z,17.58
2023-09-08T07:33:20.768Z,15.70
2023-09-08T07:35:49.484Z,18.42
2023-09-08T07:38:16.876Z,20.33
2023-09-08T07:40:44.251Z,17.77
2023-09-08T07:43:12.277Z,16.27
2023-09-08T07:45:41.623Z,15.87
2023-09-08T07:48:09.235Z,19.08
2023-09-08T07:50:36.676Z,16.60
2023-09-08T07:53:04.021Z,17.90
2023-09-08T07:55:31.371Z,17.65
2023-09-08T07:57:59.589Z,17.43
2023-09-08T08:00:27.675Z,18.02
2023-09-08T08:02:55.974Z,19.50
2023-09-08T08:05:23.834Z,21.70
2023-09-08T08:07:51.426Z,22.30
2023-09-08T08:10:19.165Z,19.77
2023-09-08T08:12:46.566Z,16.70
2023-09-08T08:15:14.118Z,17.95
2023-09-08T08:17:42.088Z,15.45
2023-09-08T08:20:11.026Z,18.83
2023-09-08T08:22:38.886Z,18.00
2023-09-08T08:25:06.806Z,21.10
2023-09-08T08:27:34.361Z,16.33
2023-09-08T08:30:02.342Z,13.82
2023-09-08T08:32:30.223Z,15.77
2023-09-08T08:34:58.123Z,18.07
2023-09-08T08:37:25.614Z,15.85
2023-09-08T08:39:53.136Z,14.00
2023-09-08T08:42:23.405Z,13.48
2023-09-08T08:44:51.626Z,13.90
2023-09-08T08:47:19.933Z,13.90
2023-09-08T08:49:47.986Z,18.50
2023-09-08T08:52:16.520Z,13.90
2023-09-08T08:54:43.966Z,13.77
2023-09-08T08:57:13.036Z,14.02
2023-09-08T08:59:42.533Z,14.10
2023-09-08T09:02:11.043Z,15.95
2023-09-08T09:04:38.868Z,15.38
2023-09-08T09:07:08.559Z,15.57
2023-09-08T09:09:36.279Z,17.98
2023-09-08T09:12:04.307Z,15.23
2023-09-08T09:14:36.137Z,12.40
2023-09-08T09:17:06.692Z,12.38
2023-09-08T09:19:34.477Z,11.95
2023-09-08T09:22:01.880Z,15.48
2023-09-08T09:24:34.536Z,13.50
2023-09-08T09:27:02.596Z,14.32
2023-09-08T09:29:30.669Z,13.30
2023-09-08T09:32:00.581Z,13.38
2023-09-08T09:34:27.934Z,12.07
2023-09-08T09:36:55.401Z,14.83
2023-09-08T09:39:24.826Z,9.57
2023-09-08T09:41:56.177Z,11.25
2023-09-08T09:44:24.070Z,11.73
2023-09-08T09:46:53.683Z,12.82
2023-09-08T09:49:21.197Z,14.70
2023-09-08T09:51:50.435Z,9.73
2023-09-08T09:54:18.742Z,10.88
2023-09-08T09:56:49.645Z,11.35
2023-09-08T09:59:18.833Z,9.93
2023-09-08T10:01:47.233Z,15.03
2023-09-08T10:04:17.016Z,12.52
2023-09-08T10:06:45.312Z,11.85
2023-09-08T10:09:15.035Z,10.75
2023-09-08T10:11:50.412Z,11.32
2023-09-08T10:14:19.119Z,8.97
2023-09-08T10:16:50.842Z,10.95
2023-09-08T10:19:18.708Z,9.48
2023-09-08T10:21:50.416Z,12.32
2023-09-08T10:24:23.931Z,10.38
2023-09-08T10:27:02.500Z,7.93
2023-09-08T10:29:29.924Z,7.72
2023-09-08T10:31:58.324Z,11.05
2023-09-08T10:34:26.379Z,6.63
2023-09-08T10:36:54.106Z,9.95
2023-09-08T10:39:30.695Z,9.77
2023-09-08T10:42:16.950Z,9.75
2023-09-08T10:45:05.694Z,5.43
2023-09-08T10:47:35.455Z,7.95
2023-09-08T10:50:03.993Z,10.65
2023-09-08T10:52:33.995Z,6.90
2023-09-08T10:55:02.740Z,6.55
2023-09-08T10:57:32.564Z,8.23
2023-09-08T11:00:13.148Z,6.28
2023-09-08T11:02:45.798Z,4.63
2023-09-08T11:05:17.069Z,6.70
2023-09-08T11:07:45.615Z,5.50
2023-09-08T11:10:13.632Z,4.05
2023-09-08T11:12:41.083Z,4.65
2023-09-08T11:15:09.827Z,4.22
2023-09-08T11:17:40.747Z,2.83
2023-09-08T11:20:10.224Z,3.65
2023-09-08T11:22:42.136Z,6.60
2023-09-08T11:25:11.995Z,7.32
2023-09-08T11:27:42.259Z,6.68
2023-09-08T11:30:10.066Z,8.77
2023-09-08T11:32:38.088Z,6.15
2023-09-08T11:35:10.021Z,8.25
2023-09-08T11:37:41.364Z,5.50
2023-09-08T11:40:13.758Z,5.38
2023-09-08T11:42:44.860Z,8.23
2023-09-08T11:45:14.077Z,6.82
2023-09-08T11:47:45.046Z,8.15
2023-09-08T11:50:19.317Z,5.22
2023-09-08T11:52:47.478Z,11.57
2023-09-08T11:55:14.881Z,4.90
2023-09-08T11:57:43.258Z,4.20
2023-09-08T12:00:13.518Z,4.85
2023-09-08T12:02:40.952Z,5.72
2023-09-08T12:05:13.653Z,8.98
2023-09-08T12:07:41.170Z,5.20
2023-09-08T12:10:12.073Z,7.35
2023-09-08T12:12:46.167Z,5.50
2023-09-08T12:15:13.550Z,5.25
2023-09-08T12:17:50.378Z,4.50
2023-09-08T12:20:18.110Z,4.30
2023-09-08T12:22:52.111Z,6.75
2023-09-08T12:25:20.029Z,6.80
2023-09-08T12:27:47.963Z,7.30
2023-09-08T12:30:19.666Z,4.95
2023-09-08T12:32:50.852Z,5.90
2023-09-08T12:35:25.003Z,8.23
2023-09-08T12:37:56.208Z,4.95
2023-09-08T12:40:23.622Z,4.45
2023-09-08T12:42:54.951Z,6.93
2023-09-08T12:45:25.381Z,7.73
2023-09-08T12:47:52.964Z,7.15
2023-09-08T12:50:20.326Z,3.83
2023-09-08T12:52:47.708Z,7.10
2023-09-08T12:55:15.255Z,5.20
2023-09-08T12:57:42.682Z,4.87
2023-09-08T13:00:10.329Z,6.18
2023-09-08T13:02:38.366Z,4.93
2023-09-08T13:05:05.902Z,6.15
2023-09-08T13:07:33.344Z,3.72
2023-09-08T13:10:00.748Z,6.10
2023-09-08T13:12:28.137Z,8.18
2023-09-08T13:14:55.516Z,6.47
2023-09-08T13:17:22.868Z,7.10
2023-09-08T13:19:50.246Z,4.72
2023-09-08T13:22:17.628Z,4.00
2023-09-08T13:24:45.379Z,4.65
2023-09-08T13:27:12.845Z,6.03
2023-09-08T13:29:40.168Z,6.35
2023-09-08T13:32:07.811Z,4.97
2023-09-08T13:34:35.737Z,4.10
2023-09-08T13:37:03.949Z,5.85
2023-09-08T13:39:31.317Z,3.00
2023-09-08T13:42:01.205Z,4.18
2023-09-08T13:44:28.759Z,4.20
2023-09-08T13:46:56.750Z,4.63
2023-09-08T13:49:26.348Z,4.38
2023-09-08T13:51:57.171Z,7.07
2023-09-08T13:54:25.996Z,4.72
2023-09-08T13:57:08.039Z,5.35
2023-09-08T13:59:37.190Z,6.13
2023-09-08T14:04:40.929Z,5.63
2023-09-08T14:07:16.881Z,6.25
2023-09-08T14:14:46.114Z,7.55
2023-09-08T14:17:13.404Z,4.43
2023-09-08T14:19:40.826Z,5.63
2023-09-08T14:22:08.137Z,8.05
2023-09-08T14:24:35.486Z,4.40
2023-09-08T14:27:02.848Z,5.30
2023-09-08T14:29:30.144Z,6.07
2023-09-08T14:31:57.507Z,8.23
2023-09-08T14:34:24.802Z,4.07
2023-09-08T14:36:52.159Z,6.70
2023-09-08T14:39:20.013Z,8.65
2023-09-08T14:41:47.401Z,4.05
2023-09-08T14:44:14.724Z,8.10
2023-09-08T14:46:42.033Z,6.18
2023-09-08T14:49:09.489Z,5.57
2023-09-08T14:51:36.750Z,5.45
2023-09-08T14:54:04.252Z,4.15
2023-09-08T14:56:31.633Z,5.30
2023-09-08T14:59:00.059Z,8.73
2023-09-08T15:01:27.783Z,6.13
2023-09-08T15:03:56.388Z,5.57
2023-09-08T15:06:25.304Z,5.38
2023-09-08T15:08:54.732Z,5.78
2023-09-08T15:11:22.019Z,9.50
2023-09-08T15:13:49.490Z,6.13
2023-09-08T15:16:16.987Z,4.70
2023-09-08T15:18:44.407Z,4.45
2023-09-08T15:21:11.799Z,6.47
2023-09-08T15:23:39.219Z,8.25
2023-09-08T15:26:06.582Z,4.87
2023-09-08T15:28:33.867Z,7.13
2023-09-08T15:31:01.369Z,5.43
2023-09-08T15:33:28.818Z,5.90
2023-09-08T15:35:56.255Z,4.32
2023-09-08T15:38:23.750Z,10.20
2023-09-08T15:41:10.961Z,4.22
2023-09-08T15:43:39.389Z,7.05
2023-09-08T15:46:07.205Z,7.88
2023-09-08T15:48:40.733Z,6.07
2023-09-08T15:51:09.606Z,6.20
2023-09-08T15:53:37.744Z,5.13
2023-09-08T15:56:05.775Z,6.00
2023-09-08T15:58:33.144Z,5.00
2023-09-08T16:01:00.623Z,6.75
2023-09-08T16:03:28.104Z,8.87
2023-09-08T16:05:55.681Z,5.07
2023-09-08T16:08:25.300Z,4.25
2023-09-08T16:10:53.125Z,7.00
2023-09-08T16:13:22.319Z,7.28
2023-09-08T16:15:49.660Z,7.87
2023-09-08T16:18:17.012Z,7.93
2023-09-08T16:20:44.286Z,6.95
2023-09-08T16:23:11.692Z,6.32
2023-09-08T16:25:39.013Z,7.95
2023-09-08T16:28:06.601Z,7.60
2023-09-08T16:30:33.901Z,4.57
2023-09-08T16:33:01.243Z,5.95
2023-09-08T16:35:28.670Z,6.97
2023-09-08T16:37:55.937Z,8.65
2023-09-08T16:40:23.730Z,9.97
2023-09-08T16:42:51.417Z,6.60
2023-09-08T16:45:18.780Z,5.65
2023-09-08T16:47:46.112Z,8.32
2023-09-08T16:50:13.497Z,6.38
2023-09-08T16:52:40.862Z,9.00
2023-09-08T16:55:12.797Z,10.90
2023-09-08T16:57:40.703Z,7.28
2023-09-08T17:00:08.993Z,6.93
2023-09-08T17:02:37.176Z,12.45
2023-09-08T17:05:04.752Z,9.93
2023-09-08T17:07:32.179Z,8.15
2023-09-08T17:09:59.635Z,8.93
2023-09-08T17:12:27.661Z,8.60
2023-09-08T17:14:55.506Z,6.82
2023-09-08T17:17:23.265Z,7.70
2023-09-08T17:19:50.636Z,5.85
2023-09-08T17:22:18.003Z,7.03
2023-09-08T17:24:45.408Z,9.15
2023-09-08T17:27:12.778Z,7.60
2023-09-08T17:29:40.128Z,12.83
2023-09-08T17:32:07.697Z,16.48
2023-09-08T17:34:35.030Z,15.10
2023-09-08T17:37:03.524Z,12.68
2023-09-08T17:39:31.074Z,14.07
2023-09-08T17:41:58.419Z,10.67
2023-09-08T17:44:25.890Z,9.75
2023-09-08T17:46:53.398Z,10.48
2023-09-08T17:49:21.011Z,7.10
2023-09-08T17:51:48.369Z,6.93
2023-09-08T17:54:15.774Z,11.50
2023-09-08T17:56:43.218Z,6.97
2023-09-08T17:59:10.616Z,10.73
2023-09-08T18:01:38.998Z,8.02
2023-09-08T18:04:07.874Z,11.82
2023-09-08T18:06:35.316Z,15.13
2023-09-08T18:09:02.684Z,10.68
2023-09-08T18:11:29.975Z,11.00
2023-09-08T18:13:57.470Z,9.95
2023-09-08T18:16:24.877Z,14.95
2023-09-08T18:18:52.223Z,10.03
2023-09-08T18:21:19.607Z,7.78
2023-09-08T18:23:47.678Z,8.32
2023-09-08T18:26:18.171Z,7.57
2023-09-08T18:28:46.191Z,9.40
2023-09-08T18:31:13.588Z,8.07
2023-09-08T18:33:41.403Z,6.20
2023-09-08T18:36:09.129Z,8.43
2023-09-08T18:38:36.485Z,11.10
2023-09-08T18:41:03.892Z,8.50
2023-09-08T18:43:31.321Z,7.87
2023-09-08T18:45:58.677Z,10.07
2023-09-08T18:48:26.049Z,14.40
2023-09-08T18:50:53.585Z,11.18
2023-09-08T18:53:20.885Z,7.95
2023-09-08T18:55:48.246Z,9.67
2023-09-08T18:58:16.154Z,12.82
2023-09-08T19:00:45.442Z,10.65
2023-09-08T19:03:13.346Z,10.50
2023-09-08T19:05:42.088Z,12.32
2023-09-08T19:08:10.023Z,15.30
2023-09-08T19:10:37.401Z,16.10
2023-09-08T19:13:05.580Z,13.82
2023-09-08T19:15:33.071Z,13.45
2023-09-08T19:18:00.552Z,11.63
2023-09-08T19:20:28.007Z,47.40
2023-09-08T19:22:56.523Z,20.27
2023-09-08T19:25:24.119Z,13.25
2023-09-08T19:27:51.739Z,15.80
2023-09-08T19:30:19.433Z,14.32
2023-09-08T19:32:46.979Z,12.20
2023-09-08T19:35:14.398Z,12.55
2023-09-08T19:37:41.713Z,10.55
2023-09-08T19:40:09.340Z,11.02
2023-09-08T19:42:36.745Z,11.82
2023-09-08T19:45:04.425Z,10.77
2023-09-08T19:47:31.940Z,12.07
2023-09-08T19:49:59.418Z,12.63
2023-09-08T19:52:26.731Z,13.65
2023-09-08T19:54:54.022Z,11.73
2023-09-08T19:57:21.343Z,9.70
2023-09-08T19:59:48.718Z,10.57
2023-09-08T20:02:16.061Z,10.80
2023-09-08T20:04:45.134Z,11.43
2023-09-08T20:07:12.777Z,13.95
2023-09-08T20:09:40.152Z,9.10
2023-09-08T20:12:07.529Z,11.07
2023-09-08T20:14:34.871Z,11.38
2023-09-08T20:17:04.554Z,14.27
2023-09-08T20:19:33.435Z,11.40
2023-09-08T20:22:01.205Z,9.00
2023-09-08T20:24:28.574Z,12.73
2023-09-08T20:26:55.896Z,9.48
2023-09-08T20:29:23.342Z,14.55
2023-09-08T20:31:50.783Z,12.63
2023-09-08T20:34:18.386Z,14.60
2023-09-08T20:36:45.965Z,12.98
2023-09-08T20:39:13.318Z,12.48
2023-09-08T20:41:40.755Z,10.48
2023-09-08T20:44:08.070Z,9.70
2023-09-08T20:46:35.491Z,11.53
2023-09-08T20:49:04.138Z,11.85
2023-09-08T20:51:31.463Z,13.55
2023-09-08T20:53:58.826Z,12.43
2023-09-08T20:56:26.125Z,10.23
2023-09-08T20:58:53.488Z,9.13
2023-09-08T21:01:20.785Z,10.40
2023-09-08T21:03:48.144Z,9.45
2023-09-08T21:06:19.278Z,10.77
2023-09-08T21:08:47.940Z,10.60
2023-09-08T21:11:16.485Z,11.73
2023-09-08T21:13:43.783Z,10.38
2023-09-08T21:16:11.169Z,14.75
2023-09-08T21:18:38.560Z,20.30
2023-09-08T21:21:05.892Z,16.75
2023-09-08T21:23:33.216Z,19.57
2023-09-08T21:26:00.636Z,16.25
2023-09-08T21:28:28.055Z,18.70
2023-09-08T21:31:04.954Z,21.10
2023-09-08T21:33:32.514Z,22.02
2023-09-08T21:36:00.108Z,21.93
2023-09-08T21:38:27.498Z,23.38
2023-09-08T21:40:54.906Z,21.50
2023-09-08T21:43:22.555Z,27.30
2023-09-08T21:45:52.256Z,23.23
2023-09-08T21:48:19.732Z,24.63
2023-09-08T21:50:47.228Z,26.65
2023-09-08T21:53:15.135Z,25.83
2023-09-08T21:55:42.432Z,26.00
2023-09-08T21:58:09.826Z,29.42
2023-09-08T22:00:37.631Z,28.67
2023-09-08T22:03:05.583Z,30.05
2023-09-08T22:05:33.046Z,32.00
2023-09-08T22:08:00.440Z,34.22
2023-09-08T22:10:27.781Z,33.63
2023-09-08T22:12:55.245Z,28.60
2023-09-08T22:15:22.683Z,31.17
2023-09-08T22:17:51.620Z,32.38
2023-09-08T22:20:19.180Z,31.92
2023-09-08T22:22:46.703Z,34.33
2023-09-08T22:25:14.820Z,32.80
2023-09-08T22:27:42.299Z,29.90
2023-09-08T22:30:09.749Z,29.15
2023-09-08T22:32:37.457Z,31.80
2023-09-08T22:35:06.005Z,31.65
2023-09-08T22:37:34.092Z,30.03
2023-09-08T22:40:01.455Z,31.90
2023-09-08T22:42:28.766Z,37.42
2023-09-08T22:44:56.082Z,35.88
2023-09-08T22:47:23.499Z,33.67
2023-09-08T22:49:58.328Z,36.53
2023-09-08T22:52:25.773Z,36.65
2023-09-08T22:54:53.899Z,38.63
2023-09-08T22:57:25.397Z,35.88
2023-09-08T22:59:52.694Z,36.83
2023-09-08T23:02:20.455Z,38.00
2023-09-08T23:04:47.881Z,41.00
2023-09-08T23:07:15.354Z,43.17
2023-09-08T23:09:42.847Z,42.90
2023-09-08T23:12:10.665Z,40.22
2023-09-08T23:14:43.062Z,39.13
2023-09-08T23:17:19.931Z,38.40
2023-09-08T23:19:47.340Z,44.20
2023-09-08T23:22:14.640Z,39.67
2023-09-08T23:24:41.912Z,47.90
2023-09-08T23:27:09.509Z,45.63
2023-09-08T23:29:37.211Z,48.95
2023-09-08T23:32:04.711Z,46.85
2023-09-08T23:34:32.186Z,41.78
2023-09-08T23:36:59.523Z,38.83
2023-09-08T23:39:27.301Z,44.87
2023-09-08T23:41:54.646Z,40.85
2023-09-08T23:44:23.644Z,43.38
2023-09-08T23:46:50.982Z,42.08
2023-09-08T23:49:18.295Z,46.92
2023-09-08T23:51:46.562Z,50.23
2023-09-08T23:54:14.546Z,52.17
2023-09-08T23:56:41.846Z,54.70
2023-09-08T23:59:09.375Z,49.83
